Time;durP1;ratioP1;P1;durP2;ratioP2;P2;SDS_P1;SDS_P2;PMS_P1;PMS_P2;Temp;Humidity;BMP_temperature;BMP_pressure;BME280_temperature;BME280_humidity;BME280_pressure;Samples;Min_cycle;Max_cycle;Signal;HPM_P1;HPM_P2
2023/02/28 00:00:12;;;;;;;9.82;5.75;;;5.60;99.90;;;;;;5082469;28;20234;-75
2023/02/28 00:02:40;;;;;;;7.70;5.97;;;5.60;99.90;;;;;;5077649;28;20605;-76
2023/02/28 00:05:09;;;;;;;9.15;6.10;;;5.70;99.90;;;;;;5090163;28;20290;-75
2023/02/28 00:07:37;;;;;;;13.95;7.80;;;5.70;99.90;;;;;;5084159;28;20227;-76
2023/02/28 00:10:06;;;;;;;12.32;7.50;;;5.70;99.90;;;;;;5083605;28;20295;-75
2023/02/28 00:12:34;;;;;;;10.73;6.47;;;5.70;99.90;;;;;;5088677;28;20202;-77
2023/02/28 00:15:02;;;;;;;9.85;6.35;;;5.60;99.90;;;;;;5091197;28;20213;-75
2023/02/28 00:17:30;;;;;;;10.40;6.55;;;5.60;99.90;;;;;;5084249;28;20218;-76
2023/02/28 00:19:56;;;;;;;10.15;6.63;;;5.60;99.90;;;;;;5091499;28;20255;-77
2023/02/28 00:22:23;;;;;;;9.45;5.90;;;5.60;99.90;;;;;;5093940;28;20286;-76
2023/02/28 00:24:50;;;;;;;10.93;6.10;;;5.70;99.90;;;;;;5085858;28;20673;-77
2023/02/28 00:27:19;;;;;;;14.35;7.00;;;5.60;99.90;;;;;;5080976;28;20655;-76
2023/02/28 00:29:47;;;;;;;16.13;5.97;;;5.50;99.90;;;;;;5093814;28;20275;-76
2023/02/28 00:32:18;;;;;;;9.10;5.70;;;5.60;99.90;;;;;;5092899;28;20253;-76
2023/02/28 00:34:45;;;;;;;9.75;5.93;;;5.60;99.90;;;;;;5091005;28;20206;-75
2023/02/28 00:37:13;;;;;;;8.93;6.32;;;5.60;99.90;;;;;;5086329;28;20255;-76
2023/02/28 00:39:41;;;;;;;9.93;6.22;;;5.50;99.90;;;;;;5090204;28;20294;-76
2023/02/28 00:42:09;;;;;;;12.30;6.65;;;5.60;99.90;;;;;;5087996;28;20288;-76
2023/02/28 00:44:36;;;;;;;7.57;5.82;;;5.60;99.90;;;;;;5092294;28;20203;-76
2023/02/28 00:47:03;;;;;;;11.20;6.57;;;5.60;99.90;;;;;;5088280;28;20262;-79
2023/02/28 00:49:31;;;;;;;8.65;5.10;;;5.40;99.90;;;;;;5092503;28;20206;-75
2023/02/28 00:51:58;;;;;;;8.40;4.93;;;5.40;99.90;;;;;;5086396;28;20226;-76
2023/02/28 00:54:25;;;;;;;8.60;5.75;;;5.40;99.90;;;;;;5085310;28;20219;-76
2023/02/28 00:56:52;;;;;;;12.07;6.03;;;5.30;99.90;;;;;;5083664;28;20222;-75
2023/02/28 00:59:19;;;;;;;8.43;5.53;;;5.20;99.90;;;;;;5093060;28;20312;-76
2023/02/28 01:01:47;;;;;;;11.90;6.22;;;5.10;99.90;;;;;;5086778;28;20226;-77
2023/02/28 01:04:14;;;;;;;9.65;6.03;;;5.10;99.90;;;;;;5098071;28;20226;-75
2023/02/28 01:06:43;;;;;;;8.65;5.75;;;5.10;99.90;;;;;;5092022;28;20226;-74
2023/02/28 01:09:10;;;;;;;9.80;5.93;;;5.00;99.90;;;;;;5093670;28;20210;-76
2023/02/28 01:11:37;;;;;;;14.25;6.22;;;5.10;99.90;;;;;;5089278;28;20190;-76
2023/02/28 01:14:05;;;;;;;8.85;5.47;;;5.00;99.90;;;;;;5085450;28;20241;-75
2023/02/28 01:16:32;;;;;;;9.65;6.45;;;5.00;99.90;;;;;;5090615;28;20821;-76
2023/02/28 01:18:59;;;;;;;12.55;6.43;;;5.10;99.90;;;;;;5082683;28;20257;-75
2023/02/28 01:21:26;;;;;;;9.50;6.05;;;5.10;99.90;;;;;;5086684;28;20209;-75
2023/02/28 01:23:57;;;;;;;9.13;5.82;;;5.10;99.90;;;;;;5080350;28;20207;-77
2023/02/28 01:26:24;;;;;;;11.15;6.10;;;5.20;99.90;;;;;;5085284;28;20228;-76
2023/02/28 01:28:53;;;;;;;11.05;5.70;;;5.10;99.90;;;;;;5078824;28;20275;-76
2023/02/28 01:31:21;;;;;;;7.72;5.97;;;5.10;99.90;;;;;;5077219;28;20233;-76
2023/02/28 01:33:49;;;;;;;10.68;5.00;;;5.00;99.90;;;;;;5085474;28;20559;-76
2023/02/28 01:36:18;;;;;;;9.60;5.97;;;5.00;99.90;;;;;;5084690;28;20272;-76
2023/02/28 01:38:45;;;;;;;11.25;6.03;;;4.90;99.90;;;;;;5077499;28;20222;-77
2023/02/28 01:41:17;;;;;;;13.30;6.50;;;4.90;99.90;;;;;;5081975;28;20290;-76
2023/02/28 01:43:58;;;;;;;10.88;6.85;;;4.90;99.90;;;;;;5075655;28;20198;-75
2023/02/28 01:46:25;;;;;;;9.50;6.45;;;4.90;99.90;;;;;;5082009;28;20256;-78
2023/02/28 01:48:55;;;;;;;7.38;6.53;;;4.80;99.90;;;;;;5082206;28;20291;-75
2023/02/28 01:51:25;;;;;;;9.10;5.93;;;4.80;99.90;;;;;;5084839;28;20204;-76
2023/02/28 01:53:56;;;;;;;12.57;7.20;;;4.70;99.90;;;;;;5074980;28;20298;-77
2023/02/28 01:56:30;;;;;;;13.75;7.40;;;4.70;99.90;;;;;;5081835;28;20706;-76
2023/02/28 01:58:57;;;;;;;10.95;6.55;;;4.60;99.90;;;;;;5080885;28;20207;-75
2023/02/28 02:01:29;;;;;;;9.85;7.05;;;4.80;99.90;;;;;;5082625;28;20209;-75
2023/02/28 02:03:58;;;;;;;13.68;6.57;;;4.70;99.90;;;;;;5092185;28;20233;-76
2023/02/28 02:06:30;;;;;;;11.00;6.82;;;4.60;99.90;;;;;;5092369;28;20747;-76
2023/02/28 02:08:57;;;;;;;8.38;6.43;;;4.50;99.90;;;;;;5092135;28;20230;-76
2023/02/28 02:11:29;;;;;;;11.82;7.55;;;4.50;99.90;;;;;;5092095;28;20240;-76
2023/02/28 02:14:22;;;;;;;8.85;6.45;;;4.50;99.90;;;;;;5087704;28;20653;-75
2023/02/28 02:17:05;;;;;;;9.57;5.80;;;4.50;99.90;;;;;;5089667;28;20249;-75
2023/02/28 02:20:17;;;;;;;9.90;6.28;;;4.40;99.90;;;;;;5078861;28;20226;-76
2023/02/28 02:23:23;;;;;;;12.35;7.20;;;4.30;99.90;;;;;;5080679;28;20199;-76
2023/02/28 02:25:55;;;;;;;8.13;6.35;;;4.30;99.90;;;;;;5034159;28;20234;-76
2023/02/28 02:29:03;;;;;;;10.15;5.88;;;4.20;99.90;;;;;;5077737;28;20217;-77
2023/02/28 02:31:52;;;;;;;10.05;6.43;;;4.20;99.90;;;;;;5083433;28;20616;-76
2023/02/28 02:34:46;;;;;;;11.85;5.95;;;4.30;99.90;;;;;;5081533;28;20202;-75
2023/02/28 02:37:28;;;;;;;8.48;6.05;;;4.30;99.90;;;;;;5085302;28;20678;-76
2023/02/28 02:40:04;;;;;;;8.98;5.85;;;4.30;99.90;;;;;;5082170;28;20260;-76
2023/02/28 02:42:40;;;;;;;16.30;7.50;;;4.10;99.90;;;;;;5083718;28;20290;-76
2023/02/28 02:45:10;;;;;;;10.25;6.05;;;4.20;99.90;;;;;;5081022;28;20256;-76
2023/02/28 02:47:39;;;;;;;9.70;6.35;;;3.90;99.90;;;;;;5082604;28;20253;-77
2023/02/28 02:50:13;;;;;;;9.10;5.72;;;3.90;99.90;;;;;;5082124;28;20282;-76
2023/02/28 02:52:44;;;;;;;9.65;6.90;;;3.80;99.90;;;;;;5081125;28;20282;-76
2023/02/28 02:55:13;;;;;;;14.63;6.90;;;3.90;99.90;;;;;;5085024;28;20684;-76
2023/02/28 02:57:47;;;;;;;12.70;6.90;;;3.80;99.90;;;;;;5082949;28;20250;-76
2023/02/28 03:00:17;;;;;;;14.30;7.35;;;3.80;99.90;;;;;;5079975;28;20202;-76
2023/02/28 03:02:47;;;;;;;7.60;5.65;;;3.80;99.90;;;;;;5085656;28;20657;-75
2023/02/28 03:05:20;;;;;;;10.90;6.60;;;3.80;99.90;;;;;;5078255;28;20233;-75
2023/02/28 03:07:47;;;;;;;9.77;6.43;;;3.70;99.90;;;;;;5073189;28;20701;-76
2023/02/28 03:10:33;;;;;;;10.63;7.80;;;3.70;99.90;;;;;;5083109;28;20286;-75
2023/02/28 03:13:33;;;;;;;14.98;6.60;;;3.80;99.90;;;;;;5085360;28;20551;-76
2023/02/28 03:16:16;;;;;;;8.73;5.90;;;3.80;99.90;;;;;;5044246;28;20238;-77
2023/02/28 03:18:55;;;;;;;13.80;7.75;;;3.80;99.90;;;;;;5080963;28;20689;-76
2023/02/28 03:21:30;;;;;;;7.18;6.05;;;3.90;99.90;;;;;;5083243;28;20720;-76
2023/02/28 03:24:06;;;;;;;10.13;5.50;;;3.90;99.90;;;;;;5063715;28;20202;-75
2023/02/28 03:26:39;;;;;;;13.07;6.88;;;3.80;99.90;;;;;;5073504;28;20218;-77
2023/02/28 03:29:16;;;;;;;10.40;7.07;;;3.80;99.90;;;;;;5082085;28;20584;-76
2023/02/28 03:31:49;;;;;;;9.55;6.45;;;3.80;99.90;;;;;;5064585;28;20285;-77
2023/02/28 03:34:21;;;;;;;10.32;7.30;;;3.80;99.90;;;;;;5086232;28;20201;-75
2023/02/28 03:36:54;;;;;;;10.75;6.78;;;3.80;99.90;;;;;;5082082;28;20218;-77
2023/02/28 03:39:24;;;;;;;11.05;6.95;;;3.80;99.90;;;;;;5085395;28;20602;-77
2023/02/28 03:41:57;;;;;;;8.50;6.60;;;3.60;99.90;;;;;;5082494;28;20233;-78
2023/02/28 03:44:31;;;;;;;7.40;6.68;;;3.70;99.90;;;;;;5083696;28;20194;-76
2023/02/28 03:47:02;;;;;;;12.07;6.80;;;3.70;99.90;;;;;;5091453;28;20268;-76
2023/02/28 03:49:34;;;;;;;9.50;6.88;;;3.60;99.90;;;;;;5086616;28;20198;-76
2023/02/28 03:52:05;;;;;;;11.15;6.82;;;3.50;99.90;;;;;;5099199;28;20563;-75
2023/02/28 03:54:36;;;;;;;12.55;5.97;;;3.30;99.90;;;;;;5089880;28;20207;-75
2023/02/28 03:57:08;;;;;;;10.77;6.55;;;3.10;99.90;;;;;;5091709;28;20325;-77
2023/02/28 03:59:38;;;;;;;8.35;5.22;;;3.10;99.90;;;;;;5087550;28;20632;-77
2023/02/28 04:02:05;;;;;;;12.25;6.93;;;3.00;99.90;;;;;;5083390;28;20199;-75
2023/02/28 04:04:32;;;;;;;9.95;5.78;;;3.00;99.90;;;;;;5086932;28;20202;-76
2023/02/28 04:07:06;;;;;;;10.88;6.65;;;3.20;99.90;;;;;;5094260;28;20234;-77
2023/02/28 04:09:33;;;;;;;8.18;7.20;;;3.10;99.90;;;;;;5085924;28;20284;-75
2023/02/28 04:12:00;;;;;;;7.72;5.35;;;3.10;99.90;;;;;;5090320;28;20233;-75
2023/02/28 04:14:27;;;;;;;9.93;7.07;;;3.20;99.90;;;;;;5087214;28;20255;-76
2023/02/28 04:16:54;;;;;;;11.20;7.10;;;3.20;99.90;;;;;;5088040;28;20265;-76
2023/02/28 04:19:22;;;;;;;9.68;7.10;;;3.10;99.90;;;;;;5084021;28;20317;-77
2023/02/28 04:21:50;;;;;;;10.00;7.82;;;3.20;99.90;;;;;;5081780;28;20264;-76
2023/02/28 04:24:20;;;;;;;13.05;6.90;;;3.20;99.90;;;;;;5091039;28;20199;-75
2023/02/28 04:26:49;;;;;;;9.10;7.38;;;3.20;99.90;;;;;;5084758;28;20650;-76
2023/02/28 04:29:22;;;;;;;12.77;6.70;;;3.20;99.90;;;;;;5083009;28;20312;-76
2023/02/28 04:31:49;;;;;;;10.70;6.88;;;3.20;99.90;;;;;;5074707;28;20282;-76
2023/02/28 04:34:16;;;;;;;7.90;6.40;;;3.10;99.90;;;;;;5079861;28;20238;-75
2023/02/28 04:36:43;;;;;;;8.73;6.90;;;3.00;99.90;;;;;;5087556;28;20221;-75
2023/02/28 04:39:10;;;;;;;13.00;6.50;;;3.10;99.90;;;;;;5086671;28;20250;-75
2023/02/28 04:41:39;;;;;;;7.72;6.22;;;3.00;99.90;;;;;;5082801;28;20194;-76
2023/02/28 04:44:06;;;;;;;6.30;5.70;;;3.00;99.90;;;;;;5084543;28;20219;-76
2023/02/28 04:46:33;;;;;;;10.77;6.88;;;3.10;99.90;;;;;;5086032;28;20301;-76
2023/02/28 04:48:59;;;;;;;10.30;6.20;;;3.10;99.90;;;;;;5091533;28;20277;-75
2023/02/28 04:51:26;;;;;;;11.73;7.07;;;3.10;99.90;;;;;;5084055;28;20286;-76
2023/02/28 04:53:54;;;;;;;9.30;6.85;;;3.00;99.90;;;;;;5090461;28;20597;-76
2023/02/28 04:56:21;;;;;;;10.30;6.55;;;3.00;99.90;;;;;;5090441;28;20257;-77
2023/02/28 04:58:50;;;;;;;8.23;6.45;;;2.70;99.90;;;;;;5075479;28;20218;-75
2023/02/28 05:01:21;;;;;;;8.52;6.10;;;2.90;99.90;;;;;;5077199;28;20255;-77
2023/02/28 05:03:48;;;;;;;11.73;7.03;;;2.80;99.90;;;;;;5085930;28;20695;-77
2023/02/28 05:06:16;;;;;;;7.35;5.82;;;2.80;99.90;;;;;;5078075;28;20308;-76
2023/02/28 05:08:43;;;;;;;8.77;7.35;;;2.70;99.90;;;;;;5082589;28;20208;-76
2023/02/28 05:11:15;;;;;;;8.63;6.90;;;2.70;99.90;;;;;;5077408;28;20224;-76
2023/02/28 05:13:42;;;;;;;11.63;7.95;;;2.70;99.90;;;;;;5089672;28;20691;-77
2023/02/28 05:16:10;;;;;;;8.30;6.57;;;2.60;99.90;;;;;;5080885;28;20291;-76
2023/02/28 05:18:37;;;;;;;9.63;6.70;;;2.60;99.90;;;;;;5083523;28;20218;-75
2023/02/28 05:21:06;;;;;;;8.38;7.55;;;2.60;99.90;;;;;;5080097;28;20205;-76
2023/02/28 05:23:33;;;;;;;13.75;8.20;;;2.50;99.90;;;;;;5086068;28;20308;-75
2023/02/28 05:26:00;;;;;;;10.90;8.07;;;2.40;99.90;;;;;;5092913;28;20608;-75
2023/02/28 05:28:27;;;;;;;10.32;6.72;;;2.30;99.90;;;;;;5076393;28;20282;-77
2023/02/28 05:30:54;;;;;;;8.75;6.85;;;2.30;99.90;;;;;;5081188;28;20194;-75
2023/02/28 05:33:22;;;;;;;7.82;7.07;;;2.20;99.90;;;;;;5080733;28;20253;-76
2023/02/28 05:35:49;;;;;;;12.13;6.90;;;2.10;99.90;;;;;;5080260;28;20202;-76
2023/02/28 05:38:17;;;;;;;7.22;6.38;;;2.20;99.90;;;;;;5086966;28;20306;-76
2023/02/28 05:40:46;;;;;;;9.80;6.72;;;2.10;99.90;;;;;;5082286;28;20212;-77
2023/02/28 05:43:13;;;;;;;8.95;6.25;;;2.20;99.90;;;;;;5091088;28;20204;-75
2023/02/28 05:45:40;;;;;;;7.25;5.90;;;2.20;99.90;;;;;;5086690;28;20196;-75
2023/02/28 05:48:08;;;;;;;7.30;6.47;;;2.10;99.90;;;;;;5091610;28;20226;-76
2023/02/28 05:50:37;;;;;;;9.55;7.40;;;2.10;99.90;;;;;;5082531;28;20229;-77
2023/02/28 05:53:04;;;;;;;10.85;7.75;;;2.10;99.90;;;;;;5088035;28;20600;-77
2023/02/28 05:55:32;;;;;;;17.65;8.05;;;2.00;99.90;;;;;;5083420;28;20199;-76
2023/02/28 05:57:59;;;;;;;12.02;7.53;;;1.90;99.90;;;;;;5074340;28;20252;-76
2023/02/28 06:00:26;;;;;;;14.38;8.10;;;1.90;99.90;;;;;;5077949;28;20257;-76
2023/02/28 06:02:56;;;;;;;11.45;8.27;;;1.90;99.90;;;;;;5073656;28;20617;-76
2023/02/28 06:05:23;;;;;;;9.95;8.10;;;1.90;99.90;;;;;;5079077;28;20198;-76
2023/02/28 06:07:51;;;;;;;13.77;8.05;;;1.70;99.90;;;;;;5074657;28;20238;-76
2023/02/28 06:10:19;;;;;;;11.35;7.97;;;1.70;99.90;;;;;;5088307;28;20217;-75
2023/02/28 06:12:46;;;;;;;12.15;8.25;;;1.60;99.90;;;;;;5078740;28;20198;-76
2023/02/28 06:15:16;;;;;;;12.07;9.00;;;1.60;99.90;;;;;;5081298;28;20562;-78
2023/02/28 06:17:43;;;;;;;13.55;8.07;;;1.60;99.90;;;;;;5080424;28;20253;-74
2023/02/28 06:20:13;;;;;;;12.77;8.60;;;1.60;99.90;;;;;;5074855;28;20226;-74
2023/02/28 06:22:40;;;;;;;9.02;6.60;;;1.50;99.90;;;;;;5076822;28;20211;-73
2023/02/28 06:25:11;;;;;;;13.32;7.53;;;1.30;99.90;;;;;;5087271;28;20284;-74
2023/02/28 06:27:39;;;;;;;10.15;8.25;;;1.50;99.90;;;;;;5086258;28;20530;-75
2023/02/28 06:30:07;;;;;;;11.57;7.15;;;1.50;99.90;;;;;;5084298;28;20202;-74
2023/02/28 06:32:35;;;;;;;7.68;6.97;;;1.50;99.90;;;;;;5090297;28;20204;-71
2023/02/28 06:35:03;;;;;;;10.30;7.40;;;1.50;99.90;;;;;;5083917;28;20202;-75
2023/02/28 06:37:31;;;;;;;11.80;7.90;;;1.50;99.90;;;;;;5085868;28;20234;-75
2023/02/28 06:39:58;;;;;;;12.43;8.82;;;1.50;99.90;;;;;;5090803;28;20252;-74
2023/02/28 06:42:28;;;;;;;11.60;8.05;;;1.60;99.90;;;;;;5086582;28;20205;-75
2023/02/28 06:44:55;;;;;;;9.63;8.02;;;1.60;99.90;;;;;;5080621;28;20212;-76
2023/02/28 06:47:22;;;;;;;12.18;8.52;;;1.60;99.90;;;;;;5091735;28;20226;-74
2023/02/28 06:49:53;;;;;;;11.80;7.95;;;1.70;99.90;;;;;;5086078;28;20298;-75
2023/02/28 06:52:22;;;;;;;11.35;7.65;;;1.70;99.90;;;;;;5096886;28;20219;-75
2023/02/28 06:54:59;;;;;;;12.85;7.90;;;1.70;99.90;;;;;;5083630;28;20210;-75
2023/02/28 06:57:30;;;;;;;10.70;7.53;;;1.70;99.90;;;;;;5088938;28;20229;-75
2023/02/28 06:59:58;;;;;;;9.70;7.45;;;1.70;99.90;;;;;;5090318;28;20303;-75
2023/02/28 07:02:26;;;;;;;10.77;7.20;;;1.70;99.90;;;;;;5086739;28;20245;-75
2023/02/28 07:04:54;;;;;;;10.27;6.78;;;1.90;99.90;;;;;;5082581;28;20211;-75
2023/02/28 07:07:21;;;;;;;11.88;7.32;;;2.00;99.90;;;;;;5094415;28;20253;-75
2023/02/28 07:09:48;;;;;;;9.65;7.72;;;2.10;99.90;;;;;;5090281;28;20241;-76
2023/02/28 07:12:15;;;;;;;10.55;7.30;;;2.30;99.90;;;;;;5095723;28;20286;-74
2023/02/28 07:14:43;;;;;;;10.02;6.75;;;2.50;99.90;;;;;;5084221;28;20744;-75
2023/02/28 07:17:12;;;;;;;11.25;6.50;;;3.00;99.90;;;;;;5094668;28;20700;-76
2023/02/28 07:19:40;;;;;;;8.15;6.07;;;3.90;99.90;;;;;;5084041;28;20560;-76
2023/02/28 07:22:09;;;;;;;8.02;6.00;;;5.20;99.90;;;;;;5081895;28;20560;-76
2023/02/28 07:24:45;;;;;;;6.65;5.68;;;6.40;99.90;;;;;;5081488;28;20544;-75
2023/02/28 07:27:23;;;;;;;9.27;5.88;;;7.00;99.90;;;;;;5089513;28;20217;-76
2023/02/28 07:29:54;;;;;;;10.30;6.05;;;7.70;99.90;;;;;;5083126;28;20205;-77
2023/02/28 07:32:23;;;;;;;12.23;5.22;;;8.70;99.90;;;;;;5080666;28;20607;-76
2023/02/28 07:37:36;;;;;;;7.75;6.43;;;10.20;94.00;;;;;;5079189;28;20430;-76
2023/02/28 07:40:08;;;;;;;8.00;6.88;;;11.10;91.70;;;;;;5073755;28;20221;-78
2023/02/28 07:51:03;;;;;;;10.52;5.82;;;12.00;85.70;;;;;;5089881;28;20230;-78
2023/02/28 07:53:35;;;;;;;10.20;5.75;;;12.10;85.20;;;;;;5091101;28;20654;-77
2023/02/28 07:56:06;;;;;;;11.70;5.63;;;12.40;84.10;;;;;;5080980;28;20190;-78
2023/02/28 07:58:35;;;;;;;7.13;5.30;;;12.80;82.80;;;;;;5090431;28;20245;-77
2023/02/28 08:01:09;;;;;;;8.00;5.93;;;13.10;80.90;;;;;;5092771;28;20683;-77
2023/02/28 08:03:36;;;;;;;8.77;6.15;;;13.50;80.20;;;;;;5074573;28;20195;-78
2023/02/28 08:06:05;;;;;;;8.93;5.25;;;13.70;79.10;;;;;;5086043;28;20211;-76
2023/02/28 08:08:32;;;;;;;6.22;5.25;;;13.90;77.90;;;;;;5085324;28;20236;-76
2023/02/28 08:11:00;;;;;;;9.82;5.45;;;14.00;77.20;;;;;;5085439;28;20626;-76
2023/02/28 08:13:28;;;;;;;5.85;5.25;;;14.10;76.30;;;;;;5089243;28;20207;-77
2023/02/28 08:15:55;;;;;;;6.85;5.30;;;14.50;76.20;;;;;;5088549;28;20208;-77
2023/02/28 08:18:23;;;;;;;9.63;5.40;;;15.00;74.80;;;;;;5080756;28;20304;-78
2023/02/28 08:20:51;;;;;;;9.00;5.55;;;14.80;74.00;;;;;;5079113;28;20519;-78
2023/02/28 08:23:18;;;;;;;7.05;5.60;;;14.80;74.40;;;;;;5082084;28;20570;-77
2023/02/28 08:25:53;;;;;;;9.40;5.50;;;14.80;73.40;;;;;;5085600;28;20284;-76
2023/02/28 08:28:20;;;;;;;5.40;4.55;;;15.00;73.70;;;;;;5093296;28;20231;-77
2023/02/28 08:30:47;;;;;;;12.13;5.50;;;14.90;73.00;;;;;;5081582;28;20303;-76
2023/02/28 08:33:14;;;;;;;5.97;4.70;;;15.00;73.10;;;;;;5092343;28;20463;-77
2023/02/28 08:35:44;;;;;;;9.23;4.57;;;15.20;72.60;;;;;;5092072;28;21923;-77
2023/02/28 08:38:10;;;;;;;13.43;5.63;;;15.00;72.00;;;;;;5084242;28;20540;-76
2023/02/28 08:40:37;;;;;;;6.87;4.97;;;15.30;71.40;;;;;;5093664;28;20562;-77
2023/02/28 08:43:04;;;;;;;8.70;5.10;;;15.40;70.70;;;;;;5089595;28;20444;-77
2023/02/28 08:45:31;;;;;;;4.70;3.63;;;15.30;70.40;;;;;;5088674;28;20481;-76
2023/02/28 08:47:58;;;;;;;6.40;3.70;;;15.50;70.20;;;;;;5082484;28;20467;-76
2023/02/28 08:50:25;;;;;;;6.37;4.83;;;15.00;68.10;;;;;;5090047;28;20493;-79
2023/02/28 08:52:53;;;;;;;5.40;2.83;;;15.00;69.30;;;;;;5088018;28;20472;-78
2023/02/28 08:55:20;;;;;;;4.07;3.23;;;14.50;68.20;;;;;;5093513;28;20486;-76
2023/02/28 08:57:48;;;;;;;7.07;3.17;;;14.10;68.50;;;;;;5093931;28;20484;-77
2023/02/28 09:00:15;;;;;;;8.95;3.55;;;14.00;69.20;;;;;;5086821;28;20205;-79
2023/02/28 09:02:46;;;;;;;4.00;2.83;;;14.30;69.20;;;;;;5084386;28;20236;-77
2023/02/28 09:05:15;;;;;;;7.32;3.10;;;14.50;68.20;;;;;;5091898;28;20429;-79
2023/02/28 09:07:42;;;;;;;3.30;2.80;;;14.80;67.50;;;;;;5090420;28;20301;-77
2023/02/28 09:10:15;;;;;;;4.53;3.20;;;15.10;66.60;;;;;;5090589;28;20538;-78
2023/02/28 09:12:45;;;;;;;3.67;2.40;;;15.40;65.70;;;;;;5089945;28;20527;-78
2023/02/28 09:15:12;;;;;;;5.13;2.60;;;15.40;65.30;;;;;;5089323;28;20852;-77
2023/02/28 09:17:39;;;;;;;2.97;2.33;;;16.30;64.70;;;;;;5089998;28;20468;-78
2023/02/28 09:20:08;;;;;;;8.07;2.73;;;15.90;62.40;;;;;;5084126;28;20433;-78
2023/02/28 09:22:35;;;;;;;5.00;3.37;;;15.70;62.60;;;;;;5084673;28;20751;-79
2023/02/28 09:25:02;;;;;;;6.23;3.67;;;15.70;62.90;;;;;;5090728;28;21868;-79
2023/02/28 09:27:30;;;;;;;5.33;2.63;;;16.40;63.80;;;;;;5076064;28;20456;-77
2023/02/28 09:29:58;;;;;;;4.73;3.33;;;16.40;61.10;;;;;;5088571;28;20464;-76
2023/02/28 09:32:25;;;;;;;3.43;2.90;;;16.80;61.00;;;;;;5090075;28;20476;-77
2023/02/28 09:34:53;;;;;;;4.07;1.80;;;16.80;59.80;;;;;;5085314;28;20873;-77
2023/02/28 09:37:20;;;;;;;3.40;2.43;;;16.00;59.80;;;;;;5090451;28;20906;-76
2023/02/28 09:39:48;;;;;;;2.10;1.33;;;15.70;59.60;;;;;;5085708;28;20441;-76
2023/02/28 09:42:27;;;;;;;2.40;1.60;;;16.40;59.40;;;;;;5082290;28;20449;-76
2023/02/28 09:44:58;;;;;;;4.13;2.00;;;16.90;58.60;;;;;;5082536;28;20447;-77
2023/02/28 09:47:30;;;;;;;5.50;2.00;;;17.00;59.70;;;;;;5086689;28;20526;-76
2023/02/28 09:50:00;;;;;;;6.20;2.07;;;16.70;59.70;;;;;;5092242;28;20448;-77
2023/02/28 09:52:31;;;;;;;2.70;2.07;;;16.60;60.00;;;;;;5084199;28;20449;-77
2023/02/28 09:55:02;;;;;;;3.03;1.73;;;16.90;59.00;;;;;;5086289;28;20505;-75
2023/02/28 09:57:36;;;;;;;3.43;2.10;;;17.30;57.40;;;;;;5096976;28;20472;-77
2023/02/28 10:00:14;;;;;;;4.60;1.87;;;17.90;56.70;;;;;;5101974;28;20446;-79
2023/02/28 10:03:02;;;;;;;2.73;2.00;;;18.70;54.60;;;;;;5102994;28;20503;-79
2023/02/28 10:05:34;;;;;;;5.33;2.20;;;17.60;54.80;;;;;;5104814;28;20539;-78
2023/02/28 10:08:12;;;;;;;4.63;2.23;;;17.10;55.70;;;;;;5096736;28;20551;-77
2023/02/28 10:10:42;;;;;;;2.63;1.60;;;16.20;56.20;;;;;;5088230;28;21057;-78
2023/02/28 10:13:26;;;;;;;2.77;1.90;;;16.50;56.10;;;;;;5094591;28;20440;-79
2023/02/28 10:15:59;;;;;;;4.10;1.70;;;16.70;55.10;;;;;;5086654;28;20444;-77
2023/02/28 10:18:31;;;;;;;2.67;1.70;;;16.30;55.20;;;;;;5097646;28;20444;-79
2023/02/28 10:21:00;;;;;;;2.63;2.03;;;16.50;55.30;;;;;;5092633;28;20454;-81
2023/02/28 10:23:32;;;;;;;3.60;1.90;;;15.70;55.80;;;;;;5094507;28;20856;-81
2023/02/28 10:26:02;;;;;;;2.20;2.00;;;14.70;56.70;;;;;;5097279;28;20448;-77
2023/02/28 10:28:31;;;;;;;3.00;1.90;;;14.10;58.00;;;;;;5097302;28;20202;-78
2023/02/28 10:31:00;;;;;;;3.42;2.30;;;14.20;59.80;;;;;;5097310;28;20219;-79
2023/02/28 10:33:31;;;;;;;2.75;2.22;;;14.40;59.30;;;;;;5087405;28;20628;-80
2023/02/28 10:35:59;;;;;;;1.63;1.52;;;14.00;58.50;;;;;;5083844;28;20206;-79
2023/02/28 10:38:29;;;;;;;1.83;1.50;;;13.90;59.30;;;;;;5084821;28;20286;-80
2023/02/28 10:41:06;;;;;;;4.05;2.58;;;14.00;60.10;;;;;;5086463;28;20599;-79
2023/02/28 10:43:33;;;;;;;5.95;1.90;;;13.40;59.60;;;;;;5085206;28;20220;-78
2023/02/28 10:46:05;;;;;;;3.88;2.05;;;12.70;61.20;;;;;;5090806;28;20293;-79
2023/02/28 10:48:38;;;;;;;3.25;1.88;;;12.50;61.50;;;;;;5088441;28;20258;-79
2023/02/28 10:51:07;;;;;;;2.08;1.60;;;12.40;62.20;;;;;;5099707;28;20656;-76
2023/02/28 10:53:47;;;;;;;4.10;1.90;;;12.40;62.10;;;;;;5090151;28;20235;-77
2023/02/28 10:56:21;;;;;;;3.22;2.22;;;12.50;62.40;;;;;;5104345;28;20240;-76
2023/02/28 10:59:08;;;;;;;2.53;2.05;;;12.60;62.40;;;;;;5100827;28;20387;-78
2023/02/28 11:01:48;;;;;;;3.03;2.25;;;12.20;61.90;;;;;;5094243;28;20553;-78
2023/02/28 11:04:21;;;;;;;3.25;2.20;;;11.90;62.70;;;;;;5086094;28;20653;-78
2023/02/28 11:06:58;;;;;;;5.45;2.40;;;11.80;64.50;;;;;;5096677;28;20227;-78
2023/02/28 11:09:30;;;;;;;5.53;2.65;;;11.70;64.00;;;;;;5096671;28;20236;-79
2023/02/28 11:11:57;;;;;;;4.53;2.28;;;11.20;64.60;;;;;;5088679;28;20303;-78
2023/02/28 11:14:28;;;;;;;3.17;2.08;;;11.00;65.70;;;;;;5092052;28;20619;-80
2023/02/28 11:17:12;;;;;;;4.20;2.33;;;10.60;66.10;;;;;;5083370;28;20654;-78
2023/02/28 11:19:45;;;;;;;7.57;4.20;;;10.40;67.10;;;;;;5094152;28;20297;-78
2023/02/28 11:22:20;;;;;;;3.83;2.63;;;10.50;67.80;;;;;;5096038;28;20285;-77
2023/02/28 11:24:50;;;;;;;3.58;2.72;;;10.30;67.40;;;;;;5069479;28;20194;-78
2023/02/28 11:27:46;;;;;;;3.88;2.50;;;10.20;67.70;;;;;;5094372;28;20287;-78
2023/02/28 11:30:33;;;;;;;3.50;2.05;;;10.00;68.70;;;;;;5097064;28;20213;-76
2023/02/28 11:33:21;;;;;;;4.10;2.00;;;9.90;70.30;;;;;;5096734;28;20639;-79
2023/02/28 11:35:51;;;;;;;6.28;3.10;;;9.90;70.10;;;;;;5096018;28;20191;-78
2023/02/28 11:38:25;;;;;;;3.45;2.05;;;10.00;69.60;;;;;;5090242;28;20665;-80
2023/02/28 11:41:06;;;;;;;4.43;2.25;;;10.00;69.50;;;;;;5087696;28;20262;-79
2023/02/28 11:43:52;;;;;;;4.70;2.38;;;9.90;70.90;;;;;;5071315;28;20236;-79
2023/02/28 11:46:31;;;;;;;2.45;1.90;;;9.90;70.50;;;;;;5075940;28;20275;-80
2023/02/28 11:49:14;;;;;;;3.67;2.30;;;9.80;70.80;;;;;;5074671;28;20596;-79
2023/02/28 11:51:56;;;;;;;3.53;2.13;;;9.70;71.00;;;;;;5096830;28;20213;-81
2023/02/28 11:54:47;;;;;;;3.80;2.38;;;9.50;71.60;;;;;;5071412;28;20215;-79
2023/02/28 11:57:43;;;;;;;6.72;2.38;;;9.40;71.50;;;;;;5062662;28;20225;-78
2023/02/28 12:00:25;;;;;;;5.55;2.80;;;9.50;72.10;;;;;;5082508;28;20259;-79
2023/02/28 12:03:02;;;;;;;4.43;2.25;;;9.30;73.20;;;;;;5080319;28;20213;-79
2023/02/28 12:05:39;;;;;;;3.00;2.10;;;9.40;73.00;;;;;;5077056;28;20252;-79
2023/02/28 12:08:20;;;;;;;7.50;3.83;;;9.50;72.60;;;;;;5074623;28;20221;-79
2023/02/28 12:11:01;;;;;;;3.47;2.70;;;9.60;72.00;;;;;;5074049;28;20198;-80
2023/02/28 12:13:38;;;;;;;4.28;2.65;;;9.70;72.10;;;;;;5087581;28;20199;-80
2023/02/28 12:16:29;;;;;;;4.72;2.47;;;9.60;72.50;;;;;;5079644;28;20692;-78
2023/02/28 12:19:10;;;;;;;3.80;2.38;;;9.50;72.40;;;;;;5091925;28;20218;-78
2023/02/28 12:21:52;;;;;;;3.67;2.40;;;9.60;72.30;;;;;;5095525;28;20273;-77
2023/02/28 12:24:44;;;;;;;2.90;2.50;;;9.20;72.80;;;;;;5083477;28;20226;-79
2023/02/28 12:27:16;;;;;;;2.67;1.95;;;9.10;73.10;;;;;;5101113;28;20228;-80
2023/02/28 12:29:50;;;;;;;3.60;2.33;;;9.00;73.30;;;;;;5105287;28;20664;-78
2023/02/28 12:32:22;;;;;;;3.75;2.13;;;8.90;73.30;;;;;;5096969;28;20267;-79
2023/02/28 12:34:54;;;;;;;4.38;1.80;;;8.90;72.00;;;;;;5103798;28;20207;-78
2023/02/28 12:37:27;;;;;;;3.53;1.98;;;9.00;71.60;;;;;;5095900;28;20215;-78
2023/02/28 12:40:03;;;;;;;2.25;1.98;;;9.00;70.80;;;;;;5077419;28;20597;-78
2023/02/28 12:42:37;;;;;;;2.53;2.33;;;9.00;70.80;;;;;;5078642;28;20237;-78
2023/02/28 12:45:10;;;;;;;4.93;2.30;;;8.90;71.30;;;;;;5091517;28;20200;-79
2023/02/28 12:47:45;;;;;;;3.35;2.30;;;8.70;72.10;;;;;;5096857;28;20218;-79
2023/02/28 12:50:13;;;;;;;1.90;1.80;;;8.90;73.10;;;;;;5085049;28;20224;-83
2023/02/28 12:52:52;;;;;;;1.80;1.70;;;8.90;73.40;;;;;;5095708;28;20294;-79
2023/02/28 12:55:29;;;;;;;3.65;2.20;;;8.80;72.90;;;;;;5083795;28;20233;-78
2023/02/28 12:58:08;;;;;;;3.40;2.28;;;8.90;73.70;;;;;;5094892;28;20290;-80
2023/02/28 13:00:38;;;;;;;9.73;2.60;;;8.90;72.90;;;;;;5097199;28;20205;-79
2023/02/28 13:03:36;;;;;;;4.35;1.90;;;9.00;73.00;;;;;;5095444;28;20198;-79
2023/02/28 13:06:35;;;;;;;3.25;2.50;;;9.00;71.40;;;;;;5086544;28;20342;-81
2023/02/28 13:09:12;;;;;;;2.20;1.85;;;9.10;69.10;;;;;;5074768;28;20281;-77
2023/02/28 13:11:46;;;;;;;2.85;2.33;;;9.00;68.60;;;;;;5076186;28;20221;-79
2023/02/28 13:14:26;;;;;;;3.05;2.08;;;8.90;68.90;;;;;;5091873;28;20664;-81
2023/02/28 13:17:00;;;;;;;1.85;1.73;;;8.90;69.90;;;;;;5096077;28;20225;-79
2023/02/28 13:19:31;;;;;;;4.32;2.22;;;8.80;70.40;;;;;;5093456;28;20610;-78
2023/02/28 13:21:59;;;;;;;6.00;1.80;;;8.70;70.60;;;;;;5096055;28;20234;-79
2023/02/28 13:24:46;;;;;;;4.43;2.42;;;8.60;70.30;;;;;;5087486;28;20230;-80